sensor_id;sensor_type;location;lat;lon;timestamp;P1;durP1;ratioP1;P2;durP2;ratioP2
57297;SDS011;43147;50.972;18.210;2022-10-30T00:01:39;40.90;;;24.60;;
57297;SDS011;43147;50.972;18.210;2022-10-30T00:04:05;40.20;;;24.70;;
57297;SDS011;43147;50.972;18.210;2022-10-30T00:06:30;42.00;;;29.60;;
57297;SDS011;43147;50.972;18.210;2022-10-30T00:08:55;43.50;;;26.10;;
57297;SDS011;43147;50.972;18.210;2022-10-30T00:11:21;43.10;;;25.80;;
57297;SDS011;43147;50.972;18.210;2022-10-30T00:13:46;38.40;;;24.40;;
57297;SDS011;43147;50.972;18.210;2022-10-30T00:16:12;40.20;;;26.30;;
57297;SDS011;43147;50.972;18.210;2022-10-30T00:18:38;45.40;;;26.50;;
57297;SDS011;43147;50.972;18.210;2022-10-30T00:21:10;44.50;;;25.80;;
57297;SDS011;43147;50.972;18.210;2022-10-30T00:23:37;40.10;;;24.00;;
57297;SDS011;43147;50.972;18.210;2022-10-30T00:26:04;48.00;;;28.80;;
57297;SDS011;43147;50.972;18.210;2022-10-30T00:28:30;44.10;;;26.60;;
57297;SDS011;43147;50.972;18.210;2022-10-30T00:31:03;44.40;;;26.90;;
57297;SDS011;43147;50.972;18.210;2022-10-30T00:33:29;40.20;;;26.50;;
57297;SDS011;43147;50.972;18.210;2022-10-30T00:35:54;45.80;;;28.00;;
57297;SDS011;43147;50.972;18.210;2022-10-30T00:38:20;49.80;;;26.70;;
57297;SDS011;43147;50.972;18.210;2022-10-30T00:40:45;43.60;;;27.70;;
57297;SDS011;43147;50.972;18.210;2022-10-30T00:43:27;38.40;;;25.80;;
57297;SDS011;43147;50.972;18.210;2022-10-30T00:46:02;46.00;;;27.80;;
57297;SDS011;43147;50.972;18.210;2022-10-30T00:48:31;39.10;;;25.70;;
57297;SDS011;43147;50.972;18.210;2022-10-30T00:50:56;40.70;;;27.70;;
57297;SDS011;43147;50.972;18.210;2022-10-30T00:53:24;42.30;;;27.00;;
57297;SDS011;43147;50.972;18.210;2022-10-30T00:55:54;42.70;;;27.20;;
57297;SDS011;43147;50.972;18.210;2022-10-30T00:58:26;46.50;;;29.10;;
57297;SDS011;43147;50.972;18.210;2022-10-30T01:00:55;47.50;;;28.20;;
57297;SDS011;43147;50.972;18.210;2022-10-30T01:03:22;43.10;;;27.30;;
57297;SDS011;43147;50.972;18.210;2022-10-30T01:05:51;50.70;;;29.00;;
57297;SDS011;43147;50.972;18.210;2022-10-30T01:08:19;47.50;;;28.00;;
57297;SDS011;43147;50.972;18.210;2022-10-30T01:10:45;45.00;;;30.20;;
57297;SDS011;43147;50.972;18.210;2022-10-30T01:13:12;38.30;;;26.80;;
57297;SDS011;43147;50.972;18.210;2022-10-30T01:15:43;48.60;;;27.20;;
57297;SDS011;43147;50.972;18.210;2022-10-30T01:18:34;40.90;;;28.30;;
57297;SDS011;43147;50.972;18.210;2022-10-30T01:21:14;50.10;;;31.70;;
57297;SDS011;43147;50.972;18.210;2022-10-30T01:23:53;53.70;;;29.70;;
57297;SDS011;43147;50.972;18.210;2022-10-30T01:29:25;50.80;;;31.00;;
57297;SDS011;43147;50.972;18.210;2022-10-30T01:37:22;53.00;;;29.80;;
57297;SDS011;43147;50.972;18.210;2022-10-30T01:39:50;43.60;;;28.90;;
57297;SDS011;43147;50.972;18.210;2022-10-30T01:56:09;55.40;;;31.00;;
57297;SDS011;43147;50.972;18.210;2022-10-30T02:01:17;54.30;;;34.00;;
57297;SDS011;43147;50.972;18.210;2022-10-30T02:03:45;53.80;;;34.90;;
57297;SDS011;43147;50.972;18.210;2022-10-30T02:06:10;53.80;;;31.10;;
57297;SDS011;43147;50.972;18.210;2022-10-30T02:08:36;51.40;;;30.40;;
57297;SDS011;43147;50.972;18.210;2022-10-30T02:11:01;51.00;;;30.60;;
57297;SDS011;43147;50.972;18.210;2022-10-30T02:13:27;50.20;;;29.70;;
57297;SDS011;43147;50.972;18.210;2022-10-30T02:15:52;48.50;;;30.80;;
57297;SDS011;43147;50.972;18.210;2022-10-30T02:18:19;47.00;;;29.10;;
57297;SDS011;43147;50.972;18.210;2022-10-30T02:20:44;45.20;;;28.40;;
57297;SDS011;43147;50.972;18.210;2022-10-30T02:23:10;48.60;;;27.70;;
57297;SDS011;43147;50.972;18.210;2022-10-30T02:25:41;43.60;;;27.00;;
57297;SDS011;43147;50.972;18.210;2022-10-30T02:28:06;47.20;;;27.40;;
57297;SDS011;43147;50.972;18.210;2022-10-30T02:30:34;49.60;;;29.20;;
57297;SDS011;43147;50.972;18.210;2022-10-30T02:32:59;51.80;;;27.90;;
57297;SDS011;43147;50.972;18.210;2022-10-30T02:35:25;45.20;;;29.30;;
57297;SDS011;43147;50.972;18.210;2022-10-30T02:37:51;48.70;;;25.60;;
57297;SDS011;43147;50.972;18.210;2022-10-30T02:40:16;50.10;;;30.20;;
57297;SDS011;43147;50.972;18.210;2022-10-30T02:42:42;40.40;;;27.60;;
57297;SDS011;43147;50.972;18.210;2022-10-30T02:45:07;41.80;;;26.80;;
57297;SDS011;43147;50.972;18.210;2022-10-30T02:47:33;43.40;;;29.30;;
57297;SDS011;43147;50.972;18.210;2022-10-30T02:49:59;46.40;;;27.20;;
57297;SDS011;43147;50.972;18.210;2022-10-30T02:52:24;45.20;;;27.60;;
57297;SDS011;43147;50.972;18.210;2022-10-30T02:54:52;42.10;;;27.60;;
57297;SDS011;43147;50.972;18.210;2022-10-30T02:57:17;46.00;;;27.70;;
57297;SDS011;43147;50.972;18.210;2022-10-30T02:59:43;45.70;;;28.00;;
57297;SDS011;43147;50.972;18.210;2022-10-30T03:02:08;45.90;;;27.10;;
57297;SDS011;43147;50.972;18.210;2022-10-30T03:04:34;44.30;;;26.30;;
57297;SDS011;43147;50.972;18.210;2022-10-30T03:06:59;53.50;;;28.30;;
57297;SDS011;43147;50.972;18.210;2022-10-30T03:09:25;47.80;;;28.10;;
57297;SDS011;43147;50.972;18.210;2022-10-30T03:11:50;46.20;;;27.70;;
57297;SDS011;43147;50.972;18.210;2022-10-30T03:14:16;47.30;;;27.10;;
57297;SDS011;43147;50.972;18.210;2022-10-30T03:16:41;42.40;;;28.60;;
57297;SDS011;43147;50.972;18.210;2022-10-30T03:19:07;49.70;;;26.80;;
57297;SDS011;43147;50.972;18.210;2022-10-30T03:21:32;47.00;;;29.30;;
57297;SDS011;43147;50.972;18.210;2022-10-30T03:23:58;48.90;;;27.10;;
57297;SDS011;43147;50.972;18.210;2022-10-30T03:26:24;50.00;;;27.70;;
57297;SDS011;43147;50.972;18.210;2022-10-30T03:28:49;47.40;;;28.30;;
57297;SDS011;43147;50.972;18.210;2022-10-30T03:31:15;50.30;;;29.80;;
57297;SDS011;43147;50.972;18.210;2022-10-30T03:33:42;47.90;;;27.70;;
57297;SDS011;43147;50.972;18.210;2022-10-30T03:36:08;53.40;;;30.30;;
57297;SDS011;43147;50.972;18.210;2022-10-30T03:38:35;50.40;;;29.60;;
57297;SDS011;43147;50.972;18.210;2022-10-30T03:41:01;59.50;;;30.10;;
57297;SDS011;43147;50.972;18.210;2022-10-30T03:43:26;57.30;;;30.00;;
57297;SDS011;43147;50.972;18.210;2022-10-30T03:45:53;55.10;;;28.60;;
57297;SDS011;43147;50.972;18.210;2022-10-30T03:48:21;57.00;;;31.40;;
57297;SDS011;43147;50.972;18.210;2022-10-30T03:50:48;56.90;;;31.40;;
57297;SDS011;43147;50.972;18.210;2022-10-30T03:53:13;58.90;;;31.60;;
57297;SDS011;43147;50.972;18.210;2022-10-30T03:55:39;70.40;;;32.70;;
57297;SDS011;43147;50.972;18.210;2022-10-30T03:58:05;63.20;;;30.90;;
57297;SDS011;43147;50.972;18.210;2022-10-30T04:00:31;57.40;;;31.10;;
57297;SDS011;43147;50.972;18.210;2022-10-30T04:02:57;58.40;;;29.20;;
57297;SDS011;43147;50.972;18.210;2022-10-30T04:05:23;55.60;;;29.90;;
57297;SDS011;43147;50.972;18.210;2022-10-30T04:07:54;56.20;;;30.30;;
57297;SDS011;43147;50.972;18.210;2022-10-30T04:10:23;52.00;;;28.30;;
57297;SDS011;43147;50.972;18.210;2022-10-30T04:12:50;57.30;;;30.30;;
57297;SDS011;43147;50.972;18.210;2022-10-30T04:15:16;52.30;;;30.50;;
57297;SDS011;43147;50.972;18.210;2022-10-30T04:17:50;52.80;;;29.50;;
57297;SDS011;43147;50.972;18.210;2022-10-30T04:20:16;50.30;;;30.10;;
57297;SDS011;43147;50.972;18.210;2022-10-30T04:22:43;52.60;;;29.10;;
57297;SDS011;43147;50.972;18.210;2022-10-30T04:25:08;55.80;;;29.70;;
57297;SDS011;43147;50.972;18.210;2022-10-30T04:27:40;57.50;;;31.30;;
57297;SDS011;43147;50.972;18.210;2022-10-30T04:30:07;77.10;;;38.90;;
57297;SDS011;43147;50.972;18.210;2022-10-30T04:32:34;93.20;;;43.50;;
57297;SDS011;43147;50.972;18.210;2022-10-30T04:34:59;74.20;;;37.80;;
57297;SDS011;43147;50.972;18.210;2022-10-30T04:37:25;60.40;;;32.20;;
57297;SDS011;43147;50.972;18.210;2022-10-30T04:39:50;61.40;;;32.70;;
57297;SDS011;43147;50.972;18.210;2022-10-30T04:42:16;57.10;;;29.90;;
57297;SDS011;43147;50.972;18.210;2022-10-30T04:44:41;54.20;;;32.10;;
57297;SDS011;43147;50.972;18.210;2022-10-30T04:47:06;63.10;;;32.70;;
57297;SDS011;43147;50.972;18.210;2022-10-30T04:49:32;57.30;;;32.60;;
57297;SDS011;43147;50.972;18.210;2022-10-30T04:51:58;43.70;;;29.00;;
57297;SDS011;43147;50.972;18.210;2022-10-30T04:54:23;48.30;;;28.80;;
57297;SDS011;43147;50.972;18.210;2022-10-30T04:56:49;50.90;;;29.40;;
57297;SDS011;43147;50.972;18.210;2022-10-30T04:59:14;50.10;;;28.80;;
57297;SDS011;43147;50.972;18.210;2022-10-30T05:01:40;52.50;;;29.40;;
57297;SDS011;43147;50.972;18.210;2022-10-30T05:04:05;56.80;;;30.80;;
57297;SDS011;43147;50.972;18.210;2022-10-30T05:06:31;52.80;;;29.00;;
57297;SDS011;43147;50.972;18.210;2022-10-30T05:08:57;55.70;;;28.70;;
57297;SDS011;43147;50.972;18.210;2022-10-30T05:11:23;54.90;;;30.50;;
57297;SDS011;43147;50.972;18.210;2022-10-30T05:13:49;51.70;;;28.70;;
57297;SDS011;43147;50.972;18.210;2022-10-30T05:16:14;55.50;;;30.00;;
57297;SDS011;43147;50.972;18.210;2022-10-30T05:18:39;56.90;;;29.70;;
57297;SDS011;43147;50.972;18.210;2022-10-30T05:21:05;45.10;;;29.00;;
57297;SDS011;43147;50.972;18.210;2022-10-30T05:23:30;59.00;;;29.70;;
57297;SDS011;43147;50.972;18.210;2022-10-30T05:25:56;53.60;;;31.40;;
57297;SDS011;43147;50.972;18.210;2022-10-30T05:28:24;55.00;;;28.60;;
57297;SDS011;43147;50.972;18.210;2022-10-30T05:30:51;63.70;;;33.30;;
57297;SDS011;43147;50.972;18.210;2022-10-30T05:33:17;86.20;;;39.10;;
57297;SDS011;43147;50.972;18.210;2022-10-30T05:35:43;102.00;;;44.30;;
57297;SDS011;43147;50.972;18.210;2022-10-30T05:38:08;94.60;;;41.90;;
57297;SDS011;43147;50.972;18.210;2022-10-30T05:40:40;88.60;;;39.80;;
57297;SDS011;43147;50.972;18.210;2022-10-30T05:43:06;72.70;;;36.70;;
57297;SDS011;43147;50.972;18.210;2022-10-30T05:45:31;62.50;;;34.10;;
57297;SDS011;43147;50.972;18.210;2022-10-30T05:48:00;61.00;;;33.10;;
57297;SDS011;43147;50.972;18.210;2022-10-30T05:50:27;65.50;;;32.50;;
57297;SDS011;43147;50.972;18.210;2022-10-30T05:52:54;62.50;;;32.30;;
57297;SDS011;43147;50.972;18.210;2022-10-30T05:55:29;57.30;;;31.30;;
57297;SDS011;43147;50.972;18.210;2022-10-30T05:57:55;53.30;;;29.00;;
57297;SDS011;43147;50.972;18.210;2022-10-30T06:00:25;49.80;;;28.50;;
57297;SDS011;43147;50.972;18.210;2022-10-30T06:02:57;51.30;;;30.40;;
57297;SDS011;43147;50.972;18.210;2022-10-30T06:05:23;55.70;;;28.70;;
57297;SDS011;43147;50.972;18.210;2022-10-30T06:07:48;47.00;;;27.60;;
57297;SDS011;43147;50.972;18.210;2022-10-30T06:10:14;49.30;;;28.10;;
57297;SDS011;43147;50.972;18.210;2022-10-30T06:12:40;45.80;;;28.90;;
57297;SDS011;43147;50.972;18.210;2022-10-30T06:15:05;52.80;;;28.40;;
57297;SDS011;43147;50.972;18.210;2022-10-30T06:17:31;54.80;;;27.20;;
57297;SDS011;43147;50.972;18.210;2022-10-30T06:19:57;41.70;;;27.40;;
57297;SDS011;43147;50.972;18.210;2022-10-30T06:22:22;43.30;;;25.70;;
57297;SDS011;43147;50.972;18.210;2022-10-30T06:24:47;43.40;;;28.40;;
57297;SDS011;43147;50.972;18.210;2022-10-30T06:27:13;44.80;;;25.90;;
57297;SDS011;43147;50.972;18.210;2022-10-30T06:29:38;43.20;;;27.70;;
57297;SDS011;43147;50.972;18.210;2022-10-30T06:32:04;44.70;;;28.70;;
57297;SDS011;43147;50.972;18.210;2022-10-30T06:34:30;43.40;;;29.50;;
57297;SDS011;43147;50.972;18.210;2022-10-30T06:36:55;39.80;;;29.30;;
57297;SDS011;43147;50.972;18.210;2022-10-30T06:39:20;38.10;;;27.80;;
57297;SDS011;43147;50.972;18.210;2022-10-30T06:41:46;41.30;;;26.00;;
57297;SDS011;43147;50.972;18.210;2022-10-30T06:44:12;38.90;;;26.70;;
57297;SDS011;43147;50.972;18.210;2022-10-30T06:46:38;35.60;;;25.40;;
57297;SDS011;43147;50.972;18.210;2022-10-30T06:49:04;30.90;;;23.90;;
57297;SDS011;43147;50.972;18.210;2022-10-30T06:51:29;34.10;;;23.50;;
57297;SDS011;43147;50.972;18.210;2022-10-30T06:53:56;29.10;;;23.40;;
57297;SDS011;43147;50.972;18.210;2022-10-30T06:56:21;38.80;;;23.80;;
57297;SDS011;43147;50.972;18.210;2022-10-30T06:58:47;35.80;;;23.40;;
57297;SDS011;43147;50.972;18.210;2022-10-30T07:01:12;34.50;;;22.60;;
57297;SDS011;43147;50.972;18.210;2022-10-30T07:03:38;32.00;;;22.80;;
57297;SDS011;43147;50.972;18.210;2022-10-30T07:06:04;41.00;;;26.70;;
57297;SDS011;43147;50.972;18.210;2022-10-30T07:08:31;52.20;;;31.00;;
57297;SDS011;43147;50.972;18.210;2022-10-30T07:10:57;55.40;;;32.90;;
57297;SDS011;43147;50.972;18.210;2022-10-30T07:13:22;42.40;;;26.40;;
57297;SDS011;43147;50.972;18.210;2022-10-30T07:15:48;35.80;;;25.90;;
57297;SDS011;43147;50.972;18.210;2022-10-30T07:18:13;32.90;;;23.80;;
57297;SDS011;43147;50.972;18.210;2022-10-30T07:20:39;39.70;;;23.10;;
57297;SDS011;43147;50.972;18.210;2022-10-30T07:23:04;34.10;;;23.80;;
57297;SDS011;43147;50.972;18.210;2022-10-30T07:25:30;34.20;;;23.60;;
57297;SDS011;43147;50.972;18.210;2022-10-30T07:27:56;35.30;;;23.40;;
57297;SDS011;43147;50.972;18.210;2022-10-30T07:30:22;34.20;;;22.50;;
57297;SDS011;43147;50.972;18.210;2022-10-30T07:32:56;36.00;;;24.50;;
57297;SDS011;43147;50.972;18.210;2022-10-30T07:35:22;38.40;;;23.30;;
57297;SDS011;43147;50.972;18.210;2022-10-30T07:37:48;30.30;;;21.70;;
57297;SDS011;43147;50.972;18.210;2022-10-30T07:40:13;34.10;;;22.90;;
57297;SDS011;43147;50.972;18.210;2022-10-30T07:42:39;33.40;;;22.00;;
57297;SDS011;43147;50.972;18.210;2022-10-30T07:45:04;34.10;;;23.60;;
57297;SDS011;43147;50.972;18.210;2022-10-30T07:47:30;37.80;;;22.10;;
57297;SDS011;43147;50.972;18.210;2022-10-30T07:49:56;32.80;;;21.10;;
57297;SDS011;43147;50.972;18.210;2022-10-30T07:52:21;30.50;;;20.40;;
57297;SDS011;43147;50.972;18.210;2022-10-30T07:54:47;29.50;;;20.40;;
57297;SDS011;43147;50.972;18.210;2022-10-30T07:57:12;28.10;;;18.80;;
57297;SDS011;43147;50.972;18.210;2022-10-30T07:59:37;27.80;;;19.30;;
57297;SDS011;43147;50.972;18.210;2022-10-30T08:02:03;25.90;;;18.50;;
57297;SDS011;43147;50.972;18.210;2022-10-30T08:04:28;28.20;;;18.10;;
57297;SDS011;43147;50.972;18.210;2022-10-30T08:06:54;30.60;;;18.40;;
57297;SDS011;43147;50.972;18.210;2022-10-30T08:09:19;25.00;;;17.70;;
57297;SDS011;43147;50.972;18.210;2022-10-30T08:11:45;20.60;;;16.60;;
57297;SDS011;43147;50.972;18.210;2022-10-30T08:14:10;26.50;;;17.80;;
57297;SDS011;43147;50.972;18.210;2022-10-30T08:16:36;26.50;;;16.50;;
57297;SDS011;43147;50.972;18.210;2022-10-30T08:19:01;29.30;;;17.50;;
57297;SDS011;43147;50.972;18.210;2022-10-30T08:21:27;28.80;;;17.60;;
57297;SDS011;43147;50.972;18.210;2022-10-30T08:23:53;26.50;;;16.90;;
57297;SDS011;43147;50.972;18.210;2022-10-30T08:26:18;20.70;;;15.10;;
57297;SDS011;43147;50.972;18.210;2022-10-30T08:28:44;23.40;;;16.60;;
57297;SDS011;43147;50.972;18.210;2022-10-30T08:31:09;23.30;;;14.50;;
57297;SDS011;43147;50.972;18.210;2022-10-30T08:33:35;21.10;;;15.20;;
57297;SDS011;43147;50.972;18.210;2022-10-30T08:36:01;22.40;;;14.30;;
57297;SDS011;43147;50.972;18.210;2022-10-30T08:38:27;20.80;;;13.90;;
57297;SDS011;43147;50.972;18.210;2022-10-30T08:40:53;17.80;;;12.60;;
57297;SDS011;43147;50.972;18.210;2022-10-30T08:43:19;21.30;;;12.90;;
57297;SDS011;43147;50.972;18.210;2022-10-30T08:45:45;25.30;;;13.40;;
57297;SDS011;43147;50.972;18.210;2022-10-30T08:48:11;21.20;;;11.90;;
57297;SDS011;43147;50.972;18.210;2022-10-30T08:50:38;15.00;;;11.20;;
57297;SDS011;43147;50.972;18.210;2022-10-30T08:53:05;15.90;;;10.90;;
57297;SDS011;43147;50.972;18.210;2022-10-30T08:55:31;21.80;;;11.80;;
57297;SDS011;43147;50.972;18.210;2022-10-30T08:57:58;16.90;;;10.90;;
57297;SDS011;43147;50.972;18.210;2022-10-30T09:00:24;15.60;;;11.10;;
57297;SDS011;43147;50.972;18.210;2022-10-30T09:02:50;18.90;;;10.50;;
57297;SDS011;43147;50.972;18.210;2022-10-30T09:05:17;19.10;;;10.60;;
57297;SDS011;43147;50.972;18.210;2022-10-30T09:07:42;17.80;;;9.90;;
57297;SDS011;43147;50.972;18.210;2022-10-30T09:10:08;15.30;;;9.30;;
57297;SDS011;43147;50.972;18.210;2022-10-30T09:12:33;18.80;;;10.30;;
57297;SDS011;43147;50.972;18.210;2022-10-30T09:15:00;15.20;;;10.50;;
57297;SDS011;43147;50.972;18.210;2022-10-30T09:17:25;13.40;;;8.80;;
57297;SDS011;43147;50.972;18.210;2022-10-30T09:19:51;16.00;;;9.60;;
57297;SDS011;43147;50.972;18.210;2022-10-30T09:22:17;21.20;;;11.00;;
57297;SDS011;43147;50.972;18.210;2022-10-30T09:24:42;12.40;;;8.90;;
57297;SDS011;43147;50.972;18.210;2022-10-30T09:27:10;15.30;;;9.60;;
57297;SDS011;43147;50.972;18.210;2022-10-30T09:29:37;16.80;;;7.70;;
57297;SDS011;43147;50.972;18.210;2022-10-30T09:32:02;17.70;;;9.20;;
57297;SDS011;43147;50.972;18.210;2022-10-30T09:34:33;20.70;;;9.80;;
57297;SDS011;43147;50.972;18.210;2022-10-30T09:36:58;11.30;;;8.60;;
57297;SDS011;43147;50.972;18.210;2022-10-30T09:39:24;16.60;;;9.20;;
57297;SDS011;43147;50.972;18.210;2022-10-30T09:52:19;16.80;;;10.30;;
57297;SDS011;43147;50.972;18.210;2022-10-30T09:55:04;13.00;;;8.90;;
57297;SDS011;43147;50.972;18.210;2022-10-30T10:00:24;10.60;;;8.80;;
57297;SDS011;43147;50.972;18.210;2022-10-30T10:02:57;14.20;;;8.90;;
57297;SDS011;43147;50.972;18.210;2022-10-30T10:11:11;12.80;;;9.20;;
57297;SDS011;43147;50.972;18.210;2022-10-30T10:13:45;18.00;;;9.50;;
57297;SDS011;43147;50.972;18.210;2022-10-30T10:16:17;22.10;;;9.70;;
57297;SDS011;43147;50.972;18.210;2022-10-30T10:18:48;18.60;;;9.30;;
57297;SDS011;43147;50.972;18.210;2022-10-30T10:21:35;15.80;;;9.80;;
57297;SDS011;43147;50.972;18.210;2022-10-30T10:24:08;13.50;;;9.00;;
57297;SDS011;43147;50.972;18.210;2022-10-30T10:26:52;16.10;;;9.10;;
57297;SDS011;43147;50.972;18.210;2022-10-30T10:29:37;12.10;;;7.90;;
57297;SDS011;43147;50.972;18.210;2022-10-30T10:42:56;12.70;;;6.30;;
57297;SDS011;43147;50.972;18.210;2022-10-30T10:48:15;13.60;;;6.50;;
57297;SDS011;43147;50.972;18.210;2022-10-30T10:50:54;12.20;;;6.20;;
57297;SDS011;43147;50.972;18.210;2022-10-30T10:53:23;12.50;;;6.10;;
57297;SDS011;43147;50.972;18.210;2022-10-30T10:55:51;15.20;;;7.90;;
57297;SDS011;43147;50.972;18.210;2022-10-30T10:58:32;22.00;;;7.30;;
57297;SDS011;43147;50.972;18.210;2022-10-30T11:01:00;15.30;;;6.80;;
57297;SDS011;43147;50.972;18.210;2022-10-30T11:03:39;15.30;;;6.80;;
57297;SDS011;43147;50.972;18.210;2022-10-30T11:06:27;14.10;;;7.40;;
57297;SDS011;43147;50.972;18.210;2022-10-30T11:09:01;19.50;;;8.00;;
57297;SDS011;43147;50.972;18.210;2022-10-30T11:11:41;17.40;;;7.90;;
57297;SDS011;43147;50.972;18.210;2022-10-30T11:14:18;19.40;;;8.80;;
57297;SDS011;43147;50.972;18.210;2022-10-30T11:16:49;24.50;;;8.50;;
57297;SDS011;43147;50.972;18.210;2022-10-30T11:19:19;12.20;;;6.00;;
57297;SDS011;43147;50.972;18.210;2022-10-30T11:21:46;12.30;;;6.40;;
57297;SDS011;43147;50.972;18.210;2022-10-30T11:24:28;38.80;;;13.00;;
57297;SDS011;43147;50.972;18.210;2022-10-30T11:26:56;17.10;;;7.50;;
57297;SDS011;43147;50.972;18.210;2022-10-30T11:29:24;13.00;;;6.30;;
57297;SDS011;43147;50.972;18.210;2022-10-30T11:32:00;13.00;;;6.10;;
57297;SDS011;43147;50.972;18.210;2022-10-30T11:34:36;11.70;;;5.90;;
57297;SDS011;43147;50.972;18.210;2022-10-30T11:37:02;16.90;;;6.30;;
57297;SDS011;43147;50.972;18.210;2022-10-30T11:39:39;17.80;;;10.40;;
57297;SDS011;43147;50.972;18.210;2022-10-30T11:42:14;22.80;;;7.10;;
57297;SDS011;43147;50.972;18.210;2022-10-30T11:47:08;11.70;;;6.10;;
57297;SDS011;43147;50.972;18.210;2022-10-30T11:49:36;16.40;;;8.20;;
57297;SDS011;43147;50.972;18.210;2022-10-30T11:52:05;15.90;;;5.90;;
57297;SDS011;43147;50.972;18.210;2022-10-30T11:54:36;15.80;;;7.00;;
57297;SDS011;43147;50.972;18.210;2022-10-30T11:57:03;15.50;;;6.00;;
57297;SDS011;43147;50.972;18.210;2022-10-30T11:59:29;22.00;;;7.90;;
57297;SDS011;43147;50.972;18.210;2022-10-30T12:02:02;11.80;;;5.70;;
57297;SDS011;43147;50.972;18.210;2022-10-30T12:04:32;18.50;;;7.00;;
57297;SDS011;43147;50.972;18.210;2022-10-30T12:09:45;12.20;;;6.40;;
57297;SDS011;43147;50.972;18.210;2022-10-30T12:12:12;14.00;;;7.30;;
57297;SDS011;43147;50.972;18.210;2022-10-30T12:17:39;10.80;;;6.10;;
57297;SDS011;43147;50.972;18.210;2022-10-30T12:20:05;19.40;;;6.20;;
57297;SDS011;43147;50.972;18.210;2022-10-30T12:22:33;19.40;;;6.80;;
57297;SDS011;43147;50.972;18.210;2022-10-30T12:24:59;13.00;;;6.00;;
57297;SDS011;43147;50.972;18.210;2022-10-30T12:27:31;15.30;;;6.00;;
57297;SDS011;43147;50.972;18.210;2022-10-30T12:30:04;11.70;;;6.30;;
57297;SDS011;43147;50.972;18.210;2022-10-30T12:35:30;21.10;;;6.70;;
57297;SDS011;43147;50.972;18.210;2022-10-30T12:41:13;19.70;;;7.50;;
57297;SDS011;43147;50.972;18.210;2022-10-30T12:43:57;14.30;;;6.70;;
57297;SDS011;43147;50.972;18.210;2022-10-30T12:48:57;20.10;;;8.70;;
57297;SDS011;43147;50.972;18.210;2022-10-30T12:51:50;16.40;;;7.90;;
57297;SDS011;43147;50.972;18.210;2022-10-30T12:57:10;23.50;;;7.40;;
57297;SDS011;43147;50.972;18.210;2022-10-30T12:59:49;27.50;;;11.10;;
57297;SDS011;43147;50.972;18.210;2022-10-30T13:02:34;19.20;;;7.20;;
57297;SDS011;43147;50.972;18.210;2022-10-30T13:05:13;14.90;;;6.20;;
57297;SDS011;43147;50.972;18.210;2022-10-30T13:10:43;16.40;;;5.90;;
57297;SDS011;43147;50.972;18.210;2022-10-30T13:13:15;14.30;;;6.00;;
57297;SDS011;43147;50.972;18.210;2022-10-30T13:15:45;12.50;;;6.50;;
57297;SDS011;43147;50.972;18.210;2022-10-30T13:18:15;19.30;;;7.10;;
57297;SDS011;43147;50.972;18.210;2022-10-30T13:23:50;27.00;;;11.90;;
57297;SDS011;43147;50.972;18.210;2022-10-30T13:26:22;20.00;;;8.30;;
57297;SDS011;43147;50.972;18.210;2022-10-30T13:34:15;13.50;;;7.50;;
57297;SDS011;43147;50.972;18.210;2022-10-30T13:36:51;16.20;;;6.80;;
57297;SDS011;43147;50.972;18.210;2022-10-30T13:39:30;9.30;;;7.30;;
57297;SDS011;43147;50.972;18.210;2022-10-30T13:42:08;16.20;;;7.10;;
57297;SDS011;43147;50.972;18.210;2022-10-30T13:44:59;21.40;;;7.40;;
57297;SDS011;43147;50.972;18.210;2022-10-30T13:53:00;22.40;;;6.70;;
57297;SDS011;43147;50.972;18.210;2022-10-30T13:55:34;23.70;;;8.30;;
57297;SDS011;43147;50.972;18.210;2022-10-30T14:11:55;21.50;;;7.40;;
57297;SDS011;43147;50.972;18.210;2022-10-30T14:14:29;18.50;;;7.10;;
57297;SDS011;43147;50.972;18.210;2022-10-30T14:17:06;21.10;;;8.70;;
57297;SDS011;43147;50.972;18.210;2022-10-30T14:19:33;20.80;;;8.90;;
57297;SDS011;43147;50.972;18.210;2022-10-30T14:22:30;21.00;;;9.30;;
57297;SDS011;43147;50.972;18.210;2022-10-30T14:24:56;23.50;;;9.50;;
57297;SDS011;43147;50.972;18.210;2022-10-30T14:27:30;19.40;;;8.90;;
57297;SDS011;43147;50.972;18.210;2022-10-30T14:29:57;19.70;;;8.80;;
57297;SDS011;43147;50.972;18.210;2022-10-30T14:37:15;22.30;;;9.40;;
57297;SDS011;43147;50.972;18.210;2022-10-30T14:39:46;21.20;;;10.60;;
57297;SDS011;43147;50.972;18.210;2022-10-30T14:55:20;20.40;;;10.40;;
57297;SDS011;43147;50.972;18.210;2022-10-30T15:00:27;19.20;;;9.70;;
57297;SDS011;43147;50.972;18.210;2022-10-30T15:02:57;19.70;;;8.50;;
57297;SDS011;43147;50.972;18.210;2022-10-30T15:13:58;45.60;;;20.60;;
57297;SDS011;43147;50.972;18.210;2022-10-30T15:16:29;47.80;;;20.80;;
57297;SDS011;43147;50.972;18.210;2022-10-30T15:19:00;41.70;;;19.90;;
57297;SDS011;43147;50.972;18.210;2022-10-30T15:21:29;37.60;;;18.90;;
57297;SDS011;43147;50.972;18.210;2022-10-30T15:23:58;37.50;;;17.30;;
57297;SDS011;43147;50.972;18.210;2022-10-30T15:26:27;30.20;;;18.00;;
57297;SDS011;43147;50.972;18.210;2022-10-30T15:28:57;34.10;;;16.60;;
57297;SDS011;43147;50.972;18.210;2022-10-30T15:31:23;45.40;;;18.40;;
57297;SDS011;43147;50.972;18.210;2022-10-30T15:33:50;28.50;;;15.20;;
57297;SDS011;43147;50.972;18.210;2022-10-30T15:36:20;46.90;;;28.10;;
57297;SDS011;43147;50.972;18.210;2022-10-30T15:39:08;51.70;;;29.50;;
57297;SDS011;43147;50.972;18.210;2022-10-30T15:41:42;41.10;;;21.30;;
57297;SDS011;43147;50.972;18.210;2022-10-30T15:44:11;33.50;;;19.20;;
57297;SDS011;43147;50.972;18.210;2022-10-30T15:46:37;40.60;;;17.60;;
57297;SDS011;43147;50.972;18.210;2022-10-30T15:49:03;35.80;;;16.60;;
57297;SDS011;43147;50.972;18.210;2022-10-30T15:51:28;30.90;;;16.80;;
57297;SDS011;43147;50.972;18.210;2022-10-30T15:53:55;37.20;;;15.80;;
57297;SDS011;43147;50.972;18.210;2022-10-30T15:56:35;49.00;;;22.20;;
57297;SDS011;43147;50.972;18.210;2022-10-30T15:59:02;35.10;;;16.30;;
57297;SDS011;43147;50.972;18.210;2022-10-30T16:01:30;38.30;;;19.40;;
57297;SDS011;43147;50.972;18.210;2022-10-30T16:03:57;53.10;;;28.40;;
57297;SDS011;43147;50.972;18.210;2022-10-30T16:06:24;57.40;;;31.90;;
57297;SDS011;43147;50.972;18.210;2022-10-30T16:08:51;65.20;;;35.60;;
57297;SDS011;43147;50.972;18.210;2022-10-30T16:11:17;59.10;;;36.80;;
57297;SDS011;43147;50.972;18.210;2022-10-30T16:13:45;67.00;;;39.30;;
57297;SDS011;43147;50.972;18.210;2022-10-30T16:16:21;56.60;;;33.70;;
57297;SDS011;43147;50.972;18.210;2022-10-30T16:18:49;64.70;;;35.70;;
57297;SDS011;43147;50.972;18.210;2022-10-30T16:21:15;70.70;;;38.30;;
57297;SDS011;43147;50.972;18.210;2022-10-30T16:23:53;51.50;;;29.50;;
57297;SDS011;43147;50.972;18.210;2022-10-30T16:26:24;55.10;;;31.10;;
57297;SDS011;43147;50.972;18.210;2022-10-30T16:28:51;51.10;;;28.40;;
57297;SDS011;43147;50.972;18.210;2022-10-30T16:31:16;53.20;;;29.80;;
57297;SDS011;43147;50.972;18.210;2022-10-30T16:33:44;51.30;;;27.20;;
57297;SDS011;43147;50.972;18.210;2022-10-30T16:36:10;50.60;;;31.40;;